sensor_id;sensor_type;location;lat;lon;timestamp;temperature;humidity
21163;DHT22;10739;52.198;20.908;2023-03-01T00:01:36;-1.90;99.90
21163;DHT22;10739;52.198;20.908;2023-03-01T00:04:02;-2.50;99.90
21163;DHT22;10739;52.198;20.908;2023-03-01T00:06:28;-2.50;99.90
21163;DHT22;10739;52.198;20.908;2023-03-01T00:08:55;-2.50;99.90
21163;DHT22;10739;52.198;20.908;2023-03-01T00:11:23;-2.50;99.90
21163;DHT22;10739;52.198;20.908;2023-03-01T00:13:54;-2.50;99.90
21163;DHT22;10739;52.198;20.908;2023-03-01T00:16:25;-2.50;99.90
21163;DHT22;10739;52.198;20.908;2023-03-01T00:19:05;-2.50;99.90
21163;DHT22;10739;52.198;20.908;2023-03-01T00:21:40;-2.50;99.90
21163;DHT22;10739;52.198;20.908;2023-03-01T00:24:07;-2.40;99.90
21163;DHT22;10739;52.198;20.908;2023-03-01T00:26:33;-2.50;99.90
21163;DHT22;10739;52.198;20.908;2023-03-01T00:29:00;-2.50;99.90
21163;DHT22;10739;52.198;20.908;2023-03-01T00:31:29;-2.50;99.90
21163;DHT22;10739;52.198;20.908;2023-03-01T00:33:59;-2.50;99.90
21163;DHT22;10739;52.198;20.908;2023-03-01T00:36:30;-2.50;99.90
21163;DHT22;10739;52.198;20.908;2023-03-01T00:38:59;-2.50;99.90
21163;DHT22;10739;52.198;20.908;2023-03-01T00:41:26;-2.50;99.90
21163;DHT22;10739;52.198;20.908;2023-03-01T00:43:53;-2.50;99.90
21163;DHT22;10739;52.198;20.908;2023-03-01T00:46:23;-2.60;99.90
21163;DHT22;10739;52.198;20.908;2023-03-01T00:48:51;-2.60;99.90
21163;DHT22;10739;52.198;20.908;2023-03-01T00:51:19;-2.50;99.90
21163;DHT22;10739;52.198;20.908;2023-03-01T00:53:54;-2.50;99.90
21163;DHT22;10739;52.198;20.908;2023-03-01T00:56:23;-2.50;99.90
21163;DHT22;10739;52.198;20.908;2023-03-01T00:58:50;-2.50;99.90
21163;DHT22;10739;52.198;20.908;2023-03-01T01:01:20;-2.60;99.90
21163;DHT22;10739;52.198;20.908;2023-03-01T01:03:54;-2.50;99.90
21163;DHT22;10739;52.198;20.908;2023-03-01T01:06:28;-2.40;99.90
21163;DHT22;10739;52.198;20.908;2023-03-01T01:08:57;-2.40;99.90
21163;DHT22;10739;52.198;20.908;2023-03-01T01:11:27;-2.40;99.90
21163;DHT22;10739;52.198;20.908;2023-03-01T01:13:55;-2.40;99.90
21163;DHT22;10739;52.198;20.908;2023-03-01T01:16:24;-2.40;99.90
21163;DHT22;10739;52.198;20.908;2023-03-01T01:18:52;-2.40;99.90
21163;DHT22;10739;52.198;20.908;2023-03-01T01:21:22;-2.40;99.90
21163;DHT22;10739;52.198;20.908;2023-03-01T01:23:50;-2.40;99.90
21163;DHT22;10739;52.198;20.908;2023-03-01T01:26:23;-2.50;99.90
21163;DHT22;10739;52.198;20.908;2023-03-01T01:28:52;-2.50;99.90
21163;DHT22;10739;52.198;20.908;2023-03-01T01:31:20;-2.50;99.90
21163;DHT22;10739;52.198;20.908;2023-03-01T01:33:50;-2.50;99.90
21163;DHT22;10739;52.198;20.908;2023-03-01T01:36:17;-2.50;99.90
21163;DHT22;10739;52.198;20.908;2023-03-01T01:38:44;-2.50;99.90
21163;DHT22;10739;52.198;20.908;2023-03-01T01:41:11;-2.50;99.90
21163;DHT22;10739;52.198;20.908;2023-03-01T01:43:44;-2.60;99.90
21163;DHT22;10739;52.198;20.908;2023-03-01T01:46:32;-2.50;99.90
21163;DHT22;10739;52.198;20.908;2023-03-01T01:49:05;-2.50;99.90
21163;DHT22;10739;52.198;20.908;2023-03-01T01:51:44;-2.50;99.90
21163;DHT22;10739;52.198;20.908;2023-03-01T01:54:24;-2.60;99.90
21163;DHT22;10739;52.198;20.908;2023-03-01T01:57:00;-2.60;99.90
21163;DHT22;10739;52.198;20.908;2023-03-01T01:59:30;-2.60;99.90
21163;DHT22;10739;52.198;20.908;2023-03-01T02:02:00;-2.60;99.90
21163;DHT22;10739;52.198;20.908;2023-03-01T02:04:30;-2.70;99.90
21163;DHT22;10739;52.198;20.908;2023-03-01T02:07:05;-2.70;99.90
21163;DHT22;10739;52.198;20.908;2023-03-01T02:09:38;-2.70;99.90
21163;DHT22;10739;52.198;20.908;2023-03-01T02:12:06;-2.70;99.90
21163;DHT22;10739;52.198;20.908;2023-03-01T02:14:33;-2.70;99.90
21163;DHT22;10739;52.198;20.908;2023-03-01T02:16:59;-2.70;99.90
21163;DHT22;10739;52.198;20.908;2023-03-01T02:20:06;-2.70;99.90
21163;DHT22;10739;52.198;20.908;2023-03-01T02:22:57;-2.70;99.90
21163;DHT22;10739;52.198;20.908;2023-03-01T02:25:41;-2.70;99.90
21163;DHT22;10739;52.198;20.908;2023-03-01T02:31:02;-2.80;99.90
21163;DHT22;10739;52.198;20.908;2023-03-01T02:33:49;-2.80;99.90
21163;DHT22;10739;52.198;20.908;2023-03-01T02:36:40;-2.80;99.90
21163;DHT22;10739;52.198;20.908;2023-03-01T02:39:14;-2.80;99.90
21163;DHT22;10739;52.198;20.908;2023-03-01T02:41:49;-2.80;99.90
21163;DHT22;10739;52.198;20.908;2023-03-01T02:44:17;-2.90;99.90
21163;DHT22;10739;52.198;20.908;2023-03-01T02:46:48;-2.90;99.90
21163;DHT22;10739;52.198;20.908;2023-03-01T02:49:27;-2.90;99.90
21163;DHT22;10739;52.198;20.908;2023-03-01T02:52:27;-2.90;99.90
21163;DHT22;10739;52.198;20.908;2023-03-01T02:55:13;-2.90;99.90
21163;DHT22;10739;52.198;20.908;2023-03-01T02:57:45;-2.90;99.90
21163;DHT22;10739;52.198;20.908;2023-03-01T03:00:26;-2.90;99.90
21163;DHT22;10739;52.198;20.908;2023-03-01T03:02:58;-2.90;99.90
21163;DHT22;10739;52.198;20.908;2023-03-01T03:05:28;-2.90;99.90
21163;DHT22;10739;52.198;20.908;2023-03-01T03:07:58;-2.90;99.90
21163;DHT22;10739;52.198;20.908;2023-03-01T03:10:28;-2.90;99.90
21163;DHT22;10739;52.198;20.908;2023-03-01T03:12:59;-2.80;99.90
21163;DHT22;10739;52.198;20.908;2023-03-01T03:15:28;-2.80;99.90
21163;DHT22;10739;52.198;20.908;2023-03-01T03:17:57;-2.80;99.90
21163;DHT22;10739;52.198;20.908;2023-03-01T03:20:26;-2.90;99.90
21163;DHT22;10739;52.198;20.908;2023-03-01T03:22:55;-2.90;99.90
21163;DHT22;10739;52.198;20.908;2023-03-01T03:25:25;-2.90;99.90
21163;DHT22;10739;52.198;20.908;2023-03-01T03:27:53;-2.90;99.90
21163;DHT22;10739;52.198;20.908;2023-03-01T03:30:25;-2.90;99.90
21163;DHT22;10739;52.198;20.908;2023-03-01T03:32:53;-2.90;99.90
21163;DHT22;10739;52.198;20.908;2023-03-01T03:35:24;-2.90;99.90
21163;DHT22;10739;52.198;20.908;2023-03-01T03:37:52;-2.80;99.90
21163;DHT22;10739;52.198;20.908;2023-03-01T03:40:34;-2.80;99.90
21163;DHT22;10739;52.198;20.908;2023-03-01T03:43:03;-2.80;99.90
21163;DHT22;10739;52.198;20.908;2023-03-01T03:45:31;-2.80;99.90
21163;DHT22;10739;52.198;20.908;2023-03-01T03:48:03;-2.80;99.90
21163;DHT22;10739;52.198;20.908;2023-03-01T03:50:32;-2.80;99.90
21163;DHT22;10739;52.198;20.908;2023-03-01T03:53:09;-2.80;99.90
21163;DHT22;10739;52.198;20.908;2023-03-01T03:55:39;-2.70;99.90
21163;DHT22;10739;52.198;20.908;2023-03-01T03:58:09;-2.70;99.90
21163;DHT22;10739;52.198;20.908;2023-03-01T04:00:44;-2.70;99.90
21163;DHT22;10739;52.198;20.908;2023-03-01T04:03:13;-2.70;99.90
21163;DHT22;10739;52.198;20.908;2023-03-01T04:05:41;-2.70;99.90
21163;DHT22;10739;52.198;20.908;2023-03-01T04:08:08;-2.70;99.90
21163;DHT22;10739;52.198;20.908;2023-03-01T04:10:37;-2.70;99.90
21163;DHT22;10739;52.198;20.908;2023-03-01T04:13:13;-2.70;99.90
21163;DHT22;10739;52.198;20.908;2023-03-01T04:15:41;-2.70;99.90
21163;DHT22;10739;52.198;20.908;2023-03-01T04:18:12;-2.80;99.90
21163;DHT22;10739;52.198;20.908;2023-03-01T04:20:41;-2.80;99.90
21163;DHT22;10739;52.198;20.908;2023-03-01T04:23:14;-2.80;99.90
21163;DHT22;10739;52.198;20.908;2023-03-01T04:25:47;-2.80;99.90
21163;DHT22;10739;52.198;20.908;2023-03-01T04:28:30;-2.80;99.90
21163;DHT22;10739;52.198;20.908;2023-03-01T04:31:05;-2.80;99.90
21163;DHT22;10739;52.198;20.908;2023-03-01T04:33:43;-2.80;99.90
21163;DHT22;10739;52.198;20.908;2023-03-01T04:36:11;-2.80;99.90
21163;DHT22;10739;52.198;20.908;2023-03-01T04:38:40;-2.90;99.90
21163;DHT22;10739;52.198;20.908;2023-03-01T04:41:09;-2.90;99.90
21163;DHT22;10739;52.198;20.908;2023-03-01T04:43:37;-2.90;99.90
21163;DHT22;10739;52.198;20.908;2023-03-01T04:46:08;-2.90;99.90
21163;DHT22;10739;52.198;20.908;2023-03-01T04:48:38;-2.90;99.90
21163;DHT22;10739;52.198;20.908;2023-03-01T04:51:06;-2.90;99.90
21163;DHT22;10739;52.198;20.908;2023-03-01T04:53:35;-2.90;99.90
21163;DHT22;10739;52.198;20.908;2023-03-01T04:56:03;-2.80;99.90
21163;DHT22;10739;52.198;20.908;2023-03-01T04:58:30;-2.80;99.90
21163;DHT22;10739;52.198;20.908;2023-03-01T05:00:57;-2.80;99.90
21163;DHT22;10739;52.198;20.908;2023-03-01T05:03:23;-2.80;99.90
21163;DHT22;10739;52.198;20.908;2023-03-01T05:05:51;-2.80;99.90
21163;DHT22;10739;52.198;20.908;2023-03-01T05:08:18;-2.80;99.90
21163;DHT22;10739;52.198;20.908;2023-03-01T05:10:50;-2.80;99.90
21163;DHT22;10739;52.198;20.908;2023-03-01T05:13:19;-2.80;99.90
21163;DHT22;10739;52.198;20.908;2023-03-01T05:15:53;-2.80;99.90
21163;DHT22;10739;52.198;20.908;2023-03-01T05:18:22;-2.70;99.90
21163;DHT22;10739;52.198;20.908;2023-03-01T05:20:55;-2.70;99.90
21163;DHT22;10739;52.198;20.908;2023-03-01T05:23:31;-2.70;99.90
21163;DHT22;10739;52.198;20.908;2023-03-01T05:26:00;-2.70;99.90
21163;DHT22;10739;52.198;20.908;2023-03-01T05:28:28;-2.70;99.90
21163;DHT22;10739;52.198;20.908;2023-03-01T05:30:55;-2.70;99.90
21163;DHT22;10739;52.198;20.908;2023-03-01T05:33:23;-2.70;99.90
21163;DHT22;10739;52.198;20.908;2023-03-01T05:35:51;-2.70;99.90
21163;DHT22;10739;52.198;20.908;2023-03-01T05:38:20;-2.70;99.90
21163;DHT22;10739;52.198;20.908;2023-03-01T05:40:48;-2.70;99.90
21163;DHT22;10739;52.198;20.908;2023-03-01T05:43:16;-2.70;99.90
21163;DHT22;10739;52.198;20.908;2023-03-01T05:45:44;-2.70;99.90
21163;DHT22;10739;52.198;20.908;2023-03-01T05:48:11;-2.60;99.90
21163;DHT22;10739;52.198;20.908;2023-03-01T05:50:43;-2.60;99.90
21163;DHT22;10739;52.198;20.908;2023-03-01T05:53:16;-2.60;99.90
21163;DHT22;10739;52.198;20.908;2023-03-01T05:55:45;-2.60;99.90
21163;DHT22;10739;52.198;20.908;2023-03-01T05:58:16;-2.60;99.90
21163;DHT22;10739;52.198;20.908;2023-03-01T06:00:44;-2.60;99.90
21163;DHT22;10739;52.198;20.908;2023-03-01T06:03:13;-2.60;99.90
21163;DHT22;10739;52.198;20.908;2023-03-01T06:05:42;-2.60;99.90
21163;DHT22;10739;52.198;20.908;2023-03-01T06:08:10;-2.50;99.90
21163;DHT22;10739;52.198;20.908;2023-03-01T06:10:37;-2.50;99.90
21163;DHT22;10739;52.198;20.908;2023-03-01T06:13:04;-2.50;99.90
21163;DHT22;10739;52.198;20.908;2023-03-01T06:15:30;-2.50;99.90
21163;DHT22;10739;52.198;20.908;2023-03-01T06:17:57;-2.50;99.90
21163;DHT22;10739;52.198;20.908;2023-03-01T06:20:25;-2.40;99.90
21163;DHT22;10739;52.198;20.908;2023-03-01T06:22:52;-2.40;99.90
21163;DHT22;10739;52.198;20.908;2023-03-01T06:25:26;-2.40;99.90
21163;DHT22;10739;52.198;20.908;2023-03-01T06:27:53;-2.30;99.90
21163;DHT22;10739;52.198;20.908;2023-03-01T06:30:21;-2.30;99.90
21163;DHT22;10739;52.198;20.908;2023-03-01T06:32:49;-2.30;99.90
21163;DHT22;10739;52.198;20.908;2023-03-01T06:35:17;-2.20;99.90
21163;DHT22;10739;52.198;20.908;2023-03-01T06:37:46;-2.10;99.90
21163;DHT22;10739;52.198;20.908;2023-03-01T06:40:14;-2.10;99.90
21163;DHT22;10739;52.198;20.908;2023-03-01T06:42:42;-2.00;99.90
21163;DHT22;10739;52.198;20.908;2023-03-01T06:45:13;-1.90;99.90
21163;DHT22;10739;52.198;20.908;2023-03-01T06:47:40;-1.90;99.90
21163;DHT22;10739;52.198;20.908;2023-03-01T06:50:06;-1.90;99.90
21163;DHT22;10739;52.198;20.908;2023-03-01T06:52:34;-1.80;99.90
21163;DHT22;10739;52.198;20.908;2023-03-01T06:55:00;-1.70;99.90
21163;DHT22;10739;52.198;20.908;2023-03-01T06:57:27;-1.60;99.90
21163;DHT22;10739;52.198;20.908;2023-03-01T06:59:53;-1.50;99.90
21163;DHT22;10739;52.198;20.908;2023-03-01T07:02:20;-1.50;99.90
21163;DHT22;10739;52.198;20.908;2023-03-01T07:04:49;-1.40;99.90
21163;DHT22;10739;52.198;20.908;2023-03-01T07:07:16;-1.50;99.90
21163;DHT22;10739;52.198;20.908;2023-03-01T07:09:48;-1.40;99.90
21163;DHT22;10739;52.198;20.908;2023-03-01T07:12:18;-1.30;99.90
21163;DHT22;10739;52.198;20.908;2023-03-01T07:14:44;-1.10;99.90
21163;DHT22;10739;52.198;20.908;2023-03-01T07:17:11;-1.20;99.90
21163;DHT22;10739;52.198;20.908;2023-03-01T07:19:37;-1.20;99.90
21163;DHT22;10739;52.198;20.908;2023-03-01T07:22:04;-1.20;99.90
21163;DHT22;10739;52.198;20.908;2023-03-01T07:24:33;-1.20;99.90
21163;DHT22;10739;52.198;20.908;2023-03-01T07:27:00;-1.10;99.90
21163;DHT22;10739;52.198;20.908;2023-03-01T07:29:26;-1.00;99.90
21163;DHT22;10739;52.198;20.908;2023-03-01T07:31:54;-1.00;99.90
21163;DHT22;10739;52.198;20.908;2023-03-01T07:34:21;-0.90;99.90
21163;DHT22;10739;52.198;20.908;2023-03-01T07:36:48;-0.80;99.90
21163;DHT22;10739;52.198;20.908;2023-03-01T07:39:15;-0.70;99.90
21163;DHT22;10739;52.198;20.908;2023-03-01T07:41:41;-0.60;99.90
21163;DHT22;10739;52.198;20.908;2023-03-01T07:44:08;-0.40;99.90
21163;DHT22;10739;52.198;20.908;2023-03-01T07:46:34;0.00;99.90
21163;DHT22;10739;52.198;20.908;2023-03-01T07:49:01;0.50;99.90
21163;DHT22;10739;52.198;20.908;2023-03-01T07:51:27;0.60;99.90
21163;DHT22;10739;52.198;20.908;2023-03-01T07:53:54;0.60;99.90
21163;DHT22;10739;52.198;20.908;2023-03-01T07:56:23;0.70;99.90
21163;DHT22;10739;52.198;20.908;2023-03-01T07:58:49;0.90;99.90
21163;DHT22;10739;52.198;20.908;2023-03-01T08:01:19;0.90;99.90
21163;DHT22;10739;52.198;20.908;2023-03-01T08:03:46;1.00;99.90
21163;DHT22;10739;52.198;20.908;2023-03-01T08:06:16;1.10;99.90
21163;DHT22;10739;52.198;20.908;2023-03-01T08:08:44;1.60;99.90
21163;DHT22;10739;52.198;20.908;2023-03-01T08:11:13;2.00;99.90
21163;DHT22;10739;52.198;20.908;2023-03-01T08:13:41;2.10;99.90
21163;DHT22;10739;52.198;20.908;2023-03-01T08:16:11;2.00;99.90
21163;DHT22;10739;52.198;20.908;2023-03-01T08:18:39;2.50;99.90
21163;DHT22;10739;52.198;20.908;2023-03-01T08:21:08;2.90;99.90
21163;DHT22;10739;52.198;20.908;2023-03-01T08:23:36;3.60;99.90
21163;DHT22;10739;52.198;20.908;2023-03-01T08:26:12;4.30;99.00
21163;DHT22;10739;52.198;20.908;2023-03-01T08:28:40;5.10;94.50
21163;DHT22;10739;52.198;20.908;2023-03-01T08:31:21;5.80;91.20
21163;DHT22;10739;52.198;20.908;2023-03-01T08:34:08;6.40;81.30
21163;DHT22;10739;52.198;20.908;2023-03-01T08:36:42;5.80;82.20
21163;DHT22;10739;52.198;20.908;2023-03-01T08:39:15;5.00;89.30
21163;DHT22;10739;52.198;20.908;2023-03-01T08:41:42;4.80;90.20
21163;DHT22;10739;52.198;20.908;2023-03-01T08:44:10;4.50;93.80
21163;DHT22;10739;52.198;20.908;2023-03-01T08:46:40;4.50;95.00
21163;DHT22;10739;52.198;20.908;2023-03-01T08:49:09;5.10;94.50
21163;DHT22;10739;52.198;20.908;2023-03-01T08:51:39;5.60;91.20
21163;DHT22;10739;52.198;20.908;2023-03-01T08:54:11;5.80;86.80
21163;DHT22;10739;52.198;20.908;2023-03-01T08:56:42;5.70;82.50
21163;DHT22;10739;52.198;20.908;2023-03-01T08:59:10;5.10;87.00
21163;DHT22;10739;52.198;20.908;2023-03-01T09:01:37;4.80;90.70
21163;DHT22;10739;52.198;20.908;2023-03-01T09:04:04;4.90;90.80
21163;DHT22;10739;52.198;20.908;2023-03-01T09:06:32;4.80;92.80
21163;DHT22;10739;52.198;20.908;2023-03-01T09:08:59;4.90;91.90
21163;DHT22;10739;52.198;20.908;2023-03-01T09:11:27;5.60;91.10
21163;DHT22;10739;52.198;20.908;2023-03-01T09:13:53;6.30;82.50
21163;DHT22;10739;52.198;20.908;2023-03-01T09:16:22;5.80;87.30
21163;DHT22;10739;52.198;20.908;2023-03-01T09:18:53;5.80;85.70
21163;DHT22;10739;52.198;20.908;2023-03-01T09:21:22;5.60;89.90
21163;DHT22;10739;52.198;20.908;2023-03-01T09:23:49;5.60;89.90
21163;DHT22;10739;52.198;20.908;2023-03-01T09:26:20;5.30;91.00
21163;DHT22;10739;52.198;20.908;2023-03-01T09:28:52;5.70;90.10
21163;DHT22;10739;52.198;20.908;2023-03-01T09:31:22;5.40;90.60
21163;DHT22;10739;52.198;20.908;2023-03-01T09:33:51;5.50;90.20
21163;DHT22;10739;52.198;20.908;2023-03-01T09:36:21;6.10;92.10
21163;DHT22;10739;52.198;20.908;2023-03-01T09:38:51;5.90;85.30
21163;DHT22;10739;52.198;20.908;2023-03-01T09:44:10;5.70;92.40
21163;DHT22;10739;52.198;20.908;2023-03-01T09:46:55;5.60;90.20
21163;DHT22;10739;52.198;20.908;2023-03-01T09:49:28;5.10;92.90
21163;DHT22;10739;52.198;20.908;2023-03-01T09:52:12;4.90;95.40
21163;DHT22;10739;52.198;20.908;2023-03-01T09:54:54;4.40;98.60
21163;DHT22;10739;52.198;20.908;2023-03-01T09:57:29;3.80;99.90
21163;DHT22;10739;52.198;20.908;2023-03-01T10:03:34;3.40;99.90
21163;DHT22;10739;52.198;20.908;2023-03-01T10:06:21;3.20;99.90
21163;DHT22;10739;52.198;20.908;2023-03-01T10:09:13;3.40;99.90
21163;DHT22;10739;52.198;20.908;2023-03-01T10:11:52;3.50;99.90
21163;DHT22;10739;52.198;20.908;2023-03-01T10:19:50;3.90;99.90
21163;DHT22;10739;52.198;20.908;2023-03-01T10:22:26;3.70;99.90
21163;DHT22;10739;52.198;20.908;2023-03-01T10:24:56;3.80;99.90
21163;DHT22;10739;52.198;20.908;2023-03-01T10:27:34;3.80;99.90
21163;DHT22;10739;52.198;20.908;2023-03-01T10:32:54;4.00;99.90
21163;DHT22;10739;52.198;20.908;2023-03-01T10:35:26;4.10;99.90
21163;DHT22;10739;52.198;20.908;2023-03-01T10:38:06;4.00;99.90
21163;DHT22;10739;52.198;20.908;2023-03-01T10:41:00;3.90;99.90
21163;DHT22;10739;52.198;20.908;2023-03-01T10:43:45;4.00;99.90
21163;DHT22;10739;52.198;20.908;2023-03-01T10:46:30;3.90;99.90
21163;DHT22;10739;52.198;20.908;2023-03-01T10:51:50;4.00;99.90
21163;DHT22;10739;52.198;20.908;2023-03-01T10:54:25;4.10;99.90
21163;DHT22;10739;52.198;20.908;2023-03-01T10:56:57;4.10;99.90
21163;DHT22;10739;52.198;20.908;2023-03-01T10:59:36;4.30;99.90
21163;DHT22;10739;52.198;20.908;2023-03-01T11:02:30;4.40;99.90
21163;DHT22;10739;52.198;20.908;2023-03-01T11:07:53;4.50;99.90
21163;DHT22;10739;52.198;20.908;2023-03-01T11:10:26;4.60;99.90
21163;DHT22;10739;52.198;20.908;2023-03-01T11:13:05;4.60;99.90
21163;DHT22;10739;52.198;20.908;2023-03-01T11:15:41;4.50;99.90
21163;DHT22;10739;52.198;20.908;2023-03-01T11:18:22;4.60;99.90
21163;DHT22;10739;52.198;20.908;2023-03-01T11:20:51;4.70;99.90
21163;DHT22;10739;52.198;20.908;2023-03-01T11:23:22;4.70;99.90
21163;DHT22;10739;52.198;20.908;2023-03-01T11:26:05;4.70;99.90
21163;DHT22;10739;52.198;20.908;2023-03-01T11:28:38;4.80;99.90
21163;DHT22;10739;52.198;20.908;2023-03-01T11:31:09;4.90;99.90
21163;DHT22;10739;52.198;20.908;2023-03-01T11:33:53;5.00;99.90
21163;DHT22;10739;52.198;20.908;2023-03-01T11:36:56;5.00;99.90
21163;DHT22;10739;52.198;20.908;2023-03-01T11:39:33;5.10;99.90
21163;DHT22;10739;52.198;20.908;2023-03-01T11:42:18;5.20;99.90
21163;DHT22;10739;52.198;20.908;2023-03-01T11:45:11;5.20;99.90
21163;DHT22;10739;52.198;20.908;2023-03-01T11:50:20;5.00;99.90
21163;DHT22;10739;52.198;20.908;2023-03-01T11:53:23;5.00;99.90
21163;DHT22;10739;52.198;20.908;2023-03-01T11:56:38;5.00;99.90
21163;DHT22;10739;52.198;20.908;2023-03-01T12:02:39;5.00;99.90
21163;DHT22;10739;52.198;20.908;2023-03-01T12:05:37;5.20;99.90
21163;DHT22;10739;52.198;20.908;2023-03-01T12:08:29;5.30;99.90
21163;DHT22;10739;52.198;20.908;2023-03-01T12:18:11;5.50;99.90
21163;DHT22;10739;52.198;20.908;2023-03-01T12:23:54;5.60;99.90
21163;DHT22;10739;52.198;20.908;2023-03-01T12:26:43;5.50;99.90
21163;DHT22;10739;52.198;20.908;2023-03-01T12:35:14;5.70;99.90
21163;DHT22;10739;52.198;20.908;2023-03-01T12:46:40;5.90;99.90
21163;DHT22;10739;52.198;20.908;2023-03-01T12:49:17;6.00;99.90
21163;DHT22;10739;52.198;20.908;2023-03-01T12:52:14;6.10;99.90
21163;DHT22;10739;52.198;20.908;2023-03-01T12:54:49;6.20;99.90
21163;DHT22;10739;52.198;20.908;2023-03-01T12:57:26;6.20;99.90
21163;DHT22;10739;52.198;20.908;2023-03-01T13:03:17;6.30;99.90
21163;DHT22;10739;52.198;20.908;2023-03-01T13:06:08;6.30;99.90
21163;DHT22;10739;52.198;20.908;2023-03-01T13:09:07;6.30;99.90
21163;DHT22;10739;52.198;20.908;2023-03-01T13:11:53;6.40;99.90
21163;DHT22;10739;52.198;20.908;2023-03-01T13:16:50;6.60;99.90
21163;DHT22;10739;52.198;20.908;2023-03-01T13:19:22;6.50;99.90
21163;DHT22;10739;52.198;20.908;2023-03-01T13:21:52;6.40;99.90
21163;DHT22;10739;52.198;20.908;2023-03-01T13:24:28;6.40;99.90
21163;DHT22;10739;52.198;20.908;2023-03-01T13:29:49;6.50;99.90
21163;DHT22;10739;52.198;20.908;2023-03-01T13:32:27;6.50;99.90
21163;DHT22;10739;52.198;20.908;2023-03-01T13:34:56;6.60;99.90
21163;DHT22;10739;52.198;20.908;2023-03-01T13:37:41;6.60;99.90
21163;DHT22;10739;52.198;20.908;2023-03-01T13:42:54;6.60;99.90
21163;DHT22;10739;52.198;20.908;2023-03-01T13:48:44;6.60;99.90
21163;DHT22;10739;52.198;20.908;2023-03-01T13:51:07;6.50;99.90
21163;DHT22;10739;52.198;20.908;2023-03-01T13:53:40;6.60;99.90
21163;DHT22;10739;52.198;20.908;2023-03-01T13:56:25;6.60;99.90
21163;DHT22;10739;52.198;20.908;2023-03-01T13:59:14;6.60;99.90
21163;DHT22;10739;52.198;20.908;2023-03-01T14:01:54;6.60;99.90
21163;DHT22;10739;52.198;20.908;2023-03-01T14:04:25;6.60;99.90
21163;DHT22;10739;52.198;20.908;2023-03-01T14:09:52;6.70;99.90
21163;DHT22;10739;52.198;20.908;2023-03-01T14:12:39;6.60;99.90
21163;DHT22;10739;52.198;20.908;2023-03-01T14:15:37;6.60;99.90
21163;DHT22;10739;52.198;20.908;2023-03-01T14:18:19;6.50;99.90
21163;DHT22;10739;52.198;20.908;2023-03-01T14:20:51;6.50;99.90
21163;DHT22;10739;52.198;20.908;2023-03-01T14:23:21;6.60;99.90
21163;DHT22;10739;52.198;20.908;2023-03-01T14:25:54;6.60;99.90
21163;DHT22;10739;52.198;20.908;2023-03-01T14:28:26;6.70;99.90
21163;DHT22;10739;52.198;20.908;2023-03-01T14:30:58;6.70;99.90
21163;DHT22;10739;52.198;20.908;2023-03-01T14:33:33;6.70;99.90
21163;DHT22;10739;52.198;20.908;2023-03-01T14:36:10;6.60;99.90
21163;DHT22;10739;52.198;20.908;2023-03-01T14:38:43;6.60;99.90
21163;DHT22;10739;52.198;20.908;2023-03-01T14:41:18;6.60;99.90
21163;DHT22;10739;52.198;20.908;2023-03-01T14:43:55;6.60;99.90
21163;DHT22;10739;52.198;20.908;2023-03-01T14:46:38;6.50;99.90
21163;DHT22;10739;52.198;20.908;2023-03-01T14:49:12;6.40;99.90
21163;DHT22;10739;52.198;20.908;2023-03-01T14:51:52;6.40;99.90
21163;DHT22;10739;52.198;20.908;2023-03-01T14:57:02;6.40;99.90
21163;DHT22;10739;52.198;20.908;2023-03-01T14:59:29;6.40;99.90
21163;DHT22;10739;52.198;20.908;2023-03-01T15:01:57;6.30;99.90
21163;DHT22;10739;52.198;20.908;2023-03-01T15:04:26;6.30;99.90
21163;DHT22;10739;52.198;20.908;2023-03-01T15:06:55;6.30;99.90
21163;DHT22;10739;52.198;20.908;2023-03-01T15:09:32;6.30;99.90
21163;DHT22;10739;52.198;20.908;2023-03-01T15:12:40;6.30;99.90
21163;DHT22;10739;52.198;20.908;2023-03-01T15:15:42;6.20;99.90
21163;DHT22;10739;52.198;20.908;2023-03-01T15:18:22;6.10;99.90
21163;DHT22;10739;52.198;20.908;2023-03-01T15:20:53;6.10;99.90
21163;DHT22;10739;52.198;20.908;2023-03-01T15:23:27;6.00;99.90
21163;DHT22;10739;52.198;20.908;2023-03-01T15:25:56;6.00;99.90
21163;DHT22;10739;52.198;20.908;2023-03-01T15:28:29;6.00;99.90
21163;DHT22;10739;52.198;20.908;2023-03-01T15:31:23;6.00;99.90
21163;DHT22;10739;52.198;20.908;2023-03-01T15:33:51;6.00;99.90
21163;DHT22;10739;52.198;20.908;2023-03-01T15:36:44;5.80;99.90
21163;DHT22;10739;52.198;20.908;2023-03-01T15:45:10;5.70;99.90
21163;DHT22;10739;52.198;20.908;2023-03-01T15:47:40;5.60;99.90
21163;DHT22;10739;52.198;20.908;2023-03-01T15:52:49;5.40;99.90
21163;DHT22;10739;52.198;20.908;2023-03-01T15:55:20;5.30;99.90
21163;DHT22;10739;52.198;20.908;2023-03-01T15:57:49;5.30;99.90
21163;DHT22;10739;52.198;20.908;2023-03-01T16:00:23;5.20;99.90
21163;DHT22;10739;52.198;20.908;2023-03-01T16:02:50;5.20;99.90
21163;DHT22;10739;52.198;20.908;2023-03-01T16:05:23;5.20;99.90
21163;DHT22;10739;52.198;20.908;2023-03-01T16:07:52;5.20;99.90
21163;DHT22;10739;52.198;20.908;2023-03-01T16:10:20;5.20;99.90
21163;DHT22;10739;52.198;20.908;2023-03-01T16:12:47;5.10;99.90
21163;DHT22;10739;52.198;20.908;2023-03-01T16:15:26;5.10;99.90
21163;DHT22;10739;52.198;20.908;2023-03-01T16:17:55;5.10;99.90
21163;DHT22;10739;52.198;20.908;2023-03-01T16:20:24;5.10;99.90
21163;DHT22;10739;52.198;20.908;2023-03-01T16:22:51;5.00;99.90
21163;DHT22;10739;52.198;20.908;2023-03-01T16:25:19;4.90;99.90
21163;DHT22;10739;52.198;20.908;2023-03-01T16:27:49;4.90;99.90
21163;DHT22;10739;52.198;20.908;2023-03-01T16:30:19;4.90;99.90
21163;DHT22;10739;52.198;20.908;2023-03-01T16:32:47;4.80;99.90
21163;DHT22;10739;52.198;20.908;2023-03-01T16:35:18;4.80;99.90
21163;DHT22;10739;52.198;20.908;2023-03-01T16:37:46;4.80;99.90
21163;DHT22;10739;52.198;20.908;2023-03-01T16:40:25;4.80;99.90
21163;DHT22;10739;52.198;20.908;2023-03-01T16:42:54;4.80;99.90
21163;DHT22;10739;52.198;20.908;2023-03-01T16:45:25;4.70;99.90
21163;DHT22;10739;52.198;20.908;2023-03-01T16:47:59;4.70;99.90
21163;DHT22;10739;52.198;20.908;2023-03-01T16:50:25;4.70;99.90
21163;DHT22;10739;52.198;20.908;2023-03-01T16:52:52;4.70;99.90
21163;DHT22;10739;52.198;20.908;2023-03-01T16:55:18;4.70;99.90
21163;DHT22;10739;52.198;20.908;2023-03-01T16:57:44;4.60;99.90
21163;DHT22;10739;52.198;20.908;2023-03-01T17:00:12;4.60;99.90
21163;DHT22;10739;52.198;20.908;2023-03-01T17:02:39;4.60;99.90
21163;DHT22;10739;52.198;20.908;2023-03-01T17:05:09;4.60;99.90
21163;DHT22;10739;52.198;20.908;2023-03-01T17:07:39;4.60;99.90
21163;DHT22;10739;52.198;20.908;2023-03-01T17:10:08;4.60;99.90
21163;DHT22;10739;52.198;20.908;2023-03-01T17:12:36;4.50;99.90
21163;DHT22;10739;52.198;20.908;2023-03-01T17:15:04;4.50;99.90
21163;DHT22;10739;52.198;20.908;2023-03-01T17:17:31;4.40;99.90
21163;DHT22;10739;52.198;20.908;2023-03-01T17:19:58;4.40;99.90